Time;durP1;ratioP1;P1;durP2;ratioP2;P2;SDS_P1;SDS_P2;PMS_P1;PMS_P2;Temp;Humidity;BMP_temperature;BMP_pressure;BME280_temperature;BME280_humidity;BME280_pressure;Samples;Min_cycle;Max_cycle;Signal;HPM_P1;HPM_P2
2023/06/04 00:01:51;;;;;;;13.93;2.63;;;17.60;53.80;;;;;;5115826;28;20031;-67
2023/06/04 00:04:16;;;;;;;4.28;2.60;;;17.60;53.80;;;;;;5115970;28;20054;-67
2023/06/04 00:06:43;;;;;;;8.20;3.20;;;17.60;54.10;;;;;;5115398;28;20046;-68
2023/06/04 00:09:09;;;;;;;8.18;2.95;;;17.50;54.40;;;;;;5114857;28;20024;-68
2023/06/04 00:11:36;;;;;;;6.03;3.38;;;17.50;54.50;;;;;;5115097;28;20023;-71
2023/06/04 00:14:02;;;;;;;7.82;2.80;;;17.40;55.40;;;;;;5114635;28;20452;-67
2023/06/04 00:16:27;;;;;;;4.53;2.78;;;17.40;54.70;;;;;;5116001;28;20031;-67
2023/06/04 00:18:53;;;;;;;7.15;3.05;;;17.40;54.60;;;;;;5115431;28;20031;-67
2023/06/04 00:21:19;;;;;;;7.32;2.30;;;17.40;54.70;;;;;;5115861;28;20085;-67
2023/06/04 00:23:44;;;;;;;10.23;3.28;;;17.40;55.00;;;;;;5115440;28;20030;-68
2023/06/04 00:26:10;;;;;;;6.70;2.88;;;17.30;55.20;;;;;;5114109;28;20023;-67
2023/06/04 00:28:36;;;;;;;5.50;2.70;;;17.30;55.20;;;;;;5115198;28;20020;-71
2023/06/04 00:31:05;;;;;;;7.97;2.90;;;17.30;55.20;;;;;;5115675;28;20084;-67
2023/06/04 00:33:31;;;;;;;7.00;2.45;;;17.20;55.20;;;;;;5115564;28;20064;-67
2023/06/04 00:35:57;;;;;;;5.95;2.65;;;17.20;55.40;;;;;;5115336;28;20031;-67
2023/06/04 00:38:22;;;;;;;5.85;2.70;;;17.20;55.40;;;;;;5115418;28;20034;-67
2023/06/04 00:40:48;;;;;;;4.72;2.55;;;17.20;55.70;;;;;;5114429;28;20028;-68
2023/06/04 00:43:13;;;;;;;7.97;3.13;;;17.10;55.40;;;;;;5115551;28;20456;-68
2023/06/04 00:45:39;;;;;;;5.75;3.03;;;17.10;56.00;;;;;;5114678;28;20044;-69
2023/06/04 00:48:06;;;;;;;3.72;2.78;;;17.10;56.00;;;;;;5115203;28;20085;-68
2023/06/04 00:50:33;;;;;;;4.82;2.70;;;17.10;55.80;;;;;;5115240;27;20466;-69
2023/06/04 00:52:59;;;;;;;7.93;2.63;;;17.00;56.00;;;;;;5114771;28;20063;-69
2023/06/04 00:55:25;;;;;;;7.82;2.50;;;17.00;56.00;;;;;;5115147;28;20031;-68
2023/06/04 00:57:50;;;;;;;4.85;2.78;;;17.00;55.80;;;;;;5114764;28;20031;-69
2023/06/04 01:00:17;;;;;;;5.38;2.90;;;17.00;55.70;;;;;;5114631;28;20030;-67
2023/06/04 01:02:45;;;;;;;6.10;2.60;;;17.00;55.90;;;;;;5114614;28;20031;-69
2023/06/04 01:05:13;;;;;;;6.88;2.70;;;16.90;56.10;;;;;;5113623;28;20372;-68
2023/06/04 01:07:46;;;;;;;6.82;2.53;;;16.90;56.40;;;;;;5114460;28;20064;-72
2023/06/04 01:10:15;;;;;;;9.60;3.05;;;16.90;57.00;;;;;;5115192;28;20028;-68
2023/06/04 01:12:44;;;;;;;9.25;3.20;;;16.80;57.20;;;;;;5114071;28;20388;-69
2023/06/04 01:15:11;;;;;;;4.07;2.72;;;16.80;57.40;;;;;;5114750;28;20383;-68
2023/06/04 01:17:51;;;;;;;5.18;2.90;;;16.80;57.40;;;;;;5114914;28;20459;-68
2023/06/04 01:20:39;;;;;;;10.40;2.63;;;16.80;57.30;;;;;;5114306;28;20551;-68
2023/06/04 01:23:36;;;;;;;8.68;2.45;;;16.80;57.00;;;;;;5114973;28;20032;-68
2023/06/04 01:26:03;;;;;;;4.35;2.63;;;16.80;57.20;;;;;;5114303;28;20050;-68
2023/06/04 01:28:32;;;;;;;6.10;2.90;;;16.80;57.20;;;;;;5114578;28;20095;-68
2023/06/04 01:30:59;;;;;;;12.65;3.33;;;16.80;57.30;;;;;;5114133;28;20035;-68
2023/06/04 01:33:25;;;;;;;7.22;2.67;;;16.80;57.20;;;;;;5114314;28;20164;-67
2023/06/04 01:35:51;;;;;;;6.00;2.83;;;16.70;57.50;;;;;;5112862;28;20470;-68
2023/06/04 01:38:17;;;;;;;7.88;2.88;;;16.70;57.30;;;;;;5114132;28;20106;-68
2023/06/04 01:40:43;;;;;;;5.13;2.90;;;16.70;57.50;;;;;;5113895;28;20418;-69
2023/06/04 01:43:08;;;;;;;9.20;2.63;;;16.70;58.10;;;;;;5114314;28;20016;-68
2023/06/04 01:45:34;;;;;;;4.72;2.53;;;16.70;57.90;;;;;;5114292;28;20107;-69
2023/06/04 01:48:02;;;;;;;4.60;2.80;;;16.70;58.10;;;;;;5113667;28;20036;-69
2023/06/04 01:50:28;;;;;;;6.00;2.78;;;16.70;57.90;;;;;;5114082;28;20036;-68
2023/06/04 01:52:54;;;;;;;5.30;2.88;;;16.60;58.40;;;;;;5112788;28;20027;-68
2023/06/04 01:55:20;;;;;;;6.55;2.60;;;16.60;58.00;;;;;;5113928;28;20027;-68
2023/06/04 01:57:50;;;;;;;3.65;2.42;;;16.60;57.90;;;;;;5113718;28;20036;-68
2023/06/04 02:00:16;;;;;;;4.55;2.63;;;16.60;57.90;;;;;;5113832;28;20027;-68
2023/06/04 02:02:43;;;;;;;7.13;3.20;;;16.50;58.10;;;;;;5113610;28;20027;-68
2023/06/04 02:05:09;;;;;;;10.60;3.22;;;16.50;58.30;;;;;;5114003;28;20027;-68
2023/06/04 02:07:38;;;;;;;4.72;2.90;;;16.50;58.40;;;;;;5113236;28;20038;-67
2023/06/04 02:10:08;;;;;;;5.20;2.55;;;16.50;58.50;;;;;;5113306;28;20034;-68
2023/06/04 02:12:37;;;;;;;4.75;2.60;;;16.40;58.40;;;;;;5114018;28;20072;-68
2023/06/04 02:15:03;;;;;;;5.55;2.90;;;16.40;58.70;;;;;;5112890;28;20023;-68
2023/06/04 02:17:32;;;;;;;3.97;2.53;;;16.40;59.40;;;;;;5113814;28;20027;-68
2023/06/04 02:19:58;;;;;;;7.28;2.97;;;16.30;59.30;;;;;;5113206;28;20153;-68
2023/06/04 02:22:25;;;;;;;8.85;3.17;;;16.30;59.30;;;;;;5113593;28;20036;-68
2023/06/04 02:24:51;;;;;;;4.95;2.47;;;16.30;59.70;;;;;;5113335;28;20057;-68
2023/06/04 02:27:17;;;;;;;9.25;3.00;;;16.30;59.30;;;;;;5113196;28;20047;-68
2023/06/04 02:29:43;;;;;;;6.05;2.63;;;16.30;59.40;;;;;;5113495;28;20027;-68
2023/06/04 02:32:09;;;;;;;4.40;2.80;;;16.20;59.80;;;;;;5113031;28;20076;-68
2023/06/04 02:34:35;;;;;;;8.68;3.03;;;16.20;59.50;;;;;;5113382;28;20051;-68
2023/06/04 02:37:02;;;;;;;8.10;2.60;;;16.20;59.80;;;;;;5113060;28;20036;-68
2023/06/04 02:39:27;;;;;;;10.45;3.05;;;16.20;59.70;;;;;;5113511;28;20068;-68
2023/06/04 02:41:53;;;;;;;9.30;3.30;;;16.20;59.80;;;;;;5112675;28;20031;-69
2023/06/04 02:44:19;;;;;;;8.45;2.80;;;16.20;59.80;;;;;;5111520;28;20062;-68
2023/06/04 02:46:44;;;;;;;6.47;2.70;;;16.10;60.20;;;;;;5113199;28;20051;-68
2023/06/04 02:49:13;;;;;;;4.75;2.60;;;16.20;60.10;;;;;;5111499;28;20020;-68
2023/06/04 02:51:42;;;;;;;7.22;3.17;;;16.10;60.10;;;;;;5113206;28;20081;-68
2023/06/04 02:54:08;;;;;;;5.20;2.90;;;16.10;60.20;;;;;;5112793;28;20081;-68
2023/06/04 02:56:35;;;;;;;6.63;2.88;;;16.10;60.40;;;;;;5113119;28;20027;-68
2023/06/04 02:59:01;;;;;;;4.32;3.28;;;16.10;60.30;;;;;;5112798;28;20027;-68
2023/06/04 03:01:27;;;;;;;6.70;3.33;;;16.10;60.60;;;;;;5113030;28;20032;-68
2023/06/04 03:03:53;;;;;;;4.32;2.70;;;16.10;60.40;;;;;;5114123;28;20019;-69
2023/06/04 03:06:20;;;;;;;7.30;2.70;;;16.10;60.70;;;;;;5116837;28;20480;-68
2023/06/04 03:08:50;;;;;;;5.47;3.40;;;16.10;60.80;;;;;;5116964;28;20084;-68
2023/06/04 03:11:20;;;;;;;5.80;2.80;;;16.10;60.70;;;;;;5096831;28;20476;-68
2023/06/04 03:13:47;;;;;;;7.18;3.05;;;16.10;60.90;;;;;;5096788;28;20028;-68
2023/06/04 03:16:13;;;;;;;8.00;3.08;;;16.10;61.10;;;;;;5096627;28;20032;-68
2023/06/04 03:18:43;;;;;;;7.63;3.47;;;16.10;61.10;;;;;;5096644;28;20032;-68
2023/06/04 03:21:11;;;;;;;4.03;2.97;;;16.10;61.30;;;;;;5096052;28;20369;-68
2023/06/04 03:23:37;;;;;;;8.23;3.33;;;16.10;61.70;;;;;;5096649;28;20108;-68
2023/06/04 03:26:03;;;;;;;8.63;3.30;;;16.10;61.80;;;;;;5096118;28;20067;-68
2023/06/04 03:28:29;;;;;;;7.07;3.42;;;16.10;61.60;;;;;;5096481;28;20042;-68
2023/06/04 03:30:55;;;;;;;7.38;3.50;;;16.20;61.60;;;;;;5096138;28;20080;-68
2023/06/04 03:33:21;;;;;;;6.70;2.85;;;16.10;61.60;;;;;;5096570;28;20058;-68
2023/06/04 03:35:48;;;;;;;6.32;3.47;;;16.10;61.80;;;;;;5096433;28;20349;-69
2023/06/04 03:38:15;;;;;;;7.05;3.10;;;16.10;61.80;;;;;;5098226;28;20043;-68
2023/06/04 03:40:40;;;;;;;4.38;2.83;;;16.10;62.00;;;;;;5097564;28;20457;-68
2023/06/04 03:43:07;;;;;;;7.22;3.20;;;16.10;62.30;;;;;;5096188;28;20080;-68
2023/06/04 03:45:33;;;;;;;6.60;3.53;;;16.10;62.50;;;;;;5114787;28;20135;-68
2023/06/04 03:47:58;;;;;;;7.90;3.05;;;16.10;62.30;;;;;;5116848;28;20118;-69
2023/06/04 03:50:24;;;;;;;6.53;2.90;;;16.10;62.30;;;;;;5116615;28;20420;-68
2023/06/04 03:52:50;;;;;;;9.70;3.80;;;16.10;62.60;;;;;;5116528;28;20020;-68
2023/06/04 03:55:16;;;;;;;4.75;3.13;;;16.20;62.90;;;;;;5116219;28;20033;-68
2023/06/04 03:57:41;;;;;;;5.45;3.25;;;16.20;62.60;;;;;;5116387;28;20038;-68
2023/06/04 04:00:11;;;;;;;5.50;3.22;;;16.30;62.50;;;;;;5115916;28;20027;-69
2023/06/04 04:02:38;;;;;;;11.52;3.40;;;16.20;62.90;;;;;;5116295;28;20023;-67
2023/06/04 04:05:03;;;;;;;6.72;3.30;;;16.30;63.00;;;;;;5115871;28;20048;-69
2023/06/04 04:07:29;;;;;;;3.53;2.70;;;16.20;63.10;;;;;;5116278;28;20075;-68
2023/06/04 04:09:55;;;;;;;10.02;3.38;;;16.30;62.90;;;;;;5115714;28;20035;-69
2023/06/04 04:12:21;;;;;;;10.05;3.60;;;16.30;63.00;;;;;;5116070;28;20031;-68
2023/06/04 04:14:47;;;;;;;7.22;3.25;;;16.30;63.20;;;;;;5115233;28;20028;-68
2023/06/04 04:17:16;;;;;;;5.07;3.10;;;16.30;63.50;;;;;;5114916;28;20051;-68
2023/06/04 04:19:42;;;;;;;6.22;3.58;;;16.30;62.90;;;;;;5115664;28;20027;-68
2023/06/04 04:22:08;;;;;;;7.07;2.88;;;16.30;63.00;;;;;;5115645;28;20027;-68
2023/06/04 04:24:35;;;;;;;7.50;3.50;;;16.30;63.00;;;;;;5115714;28;20055;-68
2023/06/04 04:27:03;;;;;;;6.20;3.38;;;16.40;63.40;;;;;;5115285;28;20039;-68
2023/06/04 04:29:32;;;;;;;7.60;3.45;;;16.40;63.30;;;;;;5115747;28;20027;-68
2023/06/04 04:32:00;;;;;;;6.50;3.33;;;16.40;63.20;;;;;;5115306;28;20088;-69
2023/06/04 04:34:26;;;;;;;6.10;3.30;;;16.40;63.30;;;;;;5115756;28;20023;-68
2023/06/04 04:36:52;;;;;;;8.43;3.63;;;16.40;63.60;;;;;;5115657;28;20050;-68
2023/06/04 04:39:27;;;;;;;5.50;3.33;;;16.40;64.00;;;;;;5115103;28;20030;-69
2023/06/04 04:41:54;;;;;;;7.38;3.03;;;16.50;63.90;;;;;;5115514;28;20027;-68
2023/06/04 04:44:20;;;;;;;6.00;3.38;;;16.50;64.20;;;;;;5115360;28;20027;-69
2023/06/04 04:46:45;;;;;;;6.57;3.03;;;16.50;63.90;;;;;;5115113;28;20052;-69
2023/06/04 04:49:11;;;;;;;4.10;3.10;;;16.50;64.30;;;;;;5114968;28;20046;-69
2023/06/04 04:51:37;;;;;;;9.30;3.35;;;16.50;64.00;;;;;;5115326;28;20024;-67
2023/06/04 04:54:02;;;;;;;5.03;3.28;;;16.50;64.60;;;;;;5115037;28;20081;-69
2023/06/04 04:56:29;;;;;;;5.65;3.30;;;16.50;64.70;;;;;;5115022;28;20457;-68
2023/06/04 04:58:55;;;;;;;5.80;3.20;;;16.40;64.60;;;;;;5114899;28;20047;-67
2023/06/04 05:01:21;;;;;;;6.18;3.85;;;16.50;64.60;;;;;;5114166;28;20024;-69
2023/06/04 05:03:48;;;;;;;6.43;3.67;;;16.50;64.50;;;;;;5115260;28;20081;-69
2023/06/04 05:06:14;;;;;;;7.97;3.80;;;16.50;64.90;;;;;;5113290;28;20437;-69
2023/06/04 05:08:40;;;;;;;8.80;3.60;;;16.50;64.70;;;;;;5115014;28;20028;-68
2023/06/04 05:11:06;;;;;;;7.00;3.80;;;16.50;64.70;;;;;;5114147;28;20015;-69
2023/06/04 05:13:31;;;;;;;6.47;4.07;;;16.50;65.00;;;;;;5114895;28;20081;-68
2023/06/04 05:15:57;;;;;;;6.03;3.80;;;16.40;65.30;;;;;;5114403;28;20027;-72
2023/06/04 05:18:28;;;;;;;5.15;3.20;;;16.50;65.20;;;;;;5114639;28;20032;-68
2023/06/04 05:20:54;;;;;;;7.88;3.50;;;16.50;65.20;;;;;;5114827;28;20024;-68
2023/06/04 05:23:20;;;;;;;6.63;3.60;;;16.40;65.50;;;;;;5114297;28;20027;-68
2023/06/04 05:25:48;;;;;;;7.00;3.63;;;16.50;65.30;;;;;;5114312;28;20433;-68
2023/06/04 05:28:15;;;;;;;8.18;3.53;;;16.50;65.50;;;;;;5114007;28;20088;-69
2023/06/04 05:30:41;;;;;;;6.35;3.65;;;16.40;65.90;;;;;;5114594;28;20160;-68
2023/06/04 05:33:11;;;;;;;7.50;3.65;;;16.40;66.00;;;;;;5112828;28;20042;-69
2023/06/04 05:35:41;;;;;;;6.50;3.33;;;16.50;66.00;;;;;;5114468;28;20020;-67
2023/06/04 05:38:06;;;;;;;6.82;4.03;;;16.50;65.60;;;;;;5113752;28;20058;-67
2023/06/04 05:40:32;;;;;;;8.18;3.70;;;16.60;66.00;;;;;;5093927;28;20032;-67
2023/06/04 05:42:57;;;;;;;6.20;3.85;;;16.60;65.20;;;;;;5093852;28;20028;-68
2023/06/04 05:45:23;;;;;;;7.15;3.50;;;16.60;65.90;;;;;;5093659;28;20537;-69
2023/06/04 05:47:49;;;;;;;7.75;3.63;;;16.60;65.60;;;;;;5093824;28;20072;-69
2023/06/04 05:50:14;;;;;;;4.32;3.10;;;16.70;65.40;;;;;;5093244;28;20103;-69
2023/06/04 05:52:40;;;;;;;5.57;3.30;;;16.70;65.20;;;;;;5093840;28;20028;-68
2023/06/04 05:55:10;;;;;;;5.40;3.40;;;16.70;65.00;;;;;;5093306;28;20035;-69
2023/06/04 05:57:35;;;;;;;13.77;3.47;;;16.70;64.80;;;;;;5093916;28;20409;-68
2023/06/04 06:00:01;;;;;;;5.35;3.90;;;16.70;64.90;;;;;;5093337;28;20076;-69
2023/06/04 06:02:27;;;;;;;6.15;3.60;;;16.70;64.80;;;;;;5093867;28;20020;-68
2023/06/04 06:04:52;;;;;;;6.93;3.50;;;16.70;64.70;;;;;;5093690;28;20518;-68
2023/06/04 06:07:19;;;;;;;7.35;3.72;;;16.70;64.90;;;;;;5091846;28;20035;-68
2023/06/04 06:09:45;;;;;;;5.90;3.50;;;16.70;65.30;;;;;;5093409;28;20028;-68
2023/06/04 06:12:10;;;;;;;5.63;3.58;;;16.70;65.00;;;;;;5093337;28;20369;-68
2023/06/04 06:14:36;;;;;;;8.10;4.40;;;16.70;64.80;;;;;;5093193;28;20104;-68
2023/06/04 06:17:02;;;;;;;7.35;3.60;;;16.70;65.00;;;;;;5093025;28;20126;-69
2023/06/04 06:19:28;;;;;;;10.45;3.75;;;16.70;65.60;;;;;;5093465;28;20028;-68
2023/06/04 06:21:54;;;;;;;7.78;3.70;;;16.70;65.70;;;;;;5099110;28;20019;-68
2023/06/04 06:24:19;;;;;;;7.43;3.60;;;16.80;65.00;;;;;;5113072;28;20425;-68
2023/06/04 06:26:45;;;;;;;6.13;3.38;;;16.80;65.10;;;;;;5113398;28;20464;-69
2023/06/04 06:29:11;;;;;;;8.60;3.90;;;16.80;65.30;;;;;;5112986;28;20019;-68
2023/06/04 06:31:36;;;;;;;5.18;3.85;;;16.90;64.90;;;;;;5113581;28;20032;-67
2023/06/04 06:34:02;;;;;;;5.20;3.58;;;16.90;65.00;;;;;;5113326;28;20102;-73
2023/06/04 06:36:28;;;;;;;9.95;3.35;;;17.00;64.80;;;;;;5113629;28;20027;-69
2023/06/04 06:38:54;;;;;;;7.65;3.83;;;17.00;64.50;;;;;;5112444;28;20027;-69
2023/06/04 06:41:20;;;;;;;7.43;3.50;;;17.00;64.70;;;;;;5112694;28;20024;-69
2023/06/04 06:43:46;;;;;;;6.90;3.58;;;17.00;65.00;;;;;;5113174;28;20102;-68
2023/06/04 06:46:12;;;;;;;7.25;3.90;;;17.00;64.90;;;;;;5112617;28;20048;-68
2023/06/04 06:48:38;;;;;;;11.57;4.07;;;17.00;64.70;;;;;;5112854;28;20038;-67
2023/06/04 06:51:03;;;;;;;9.20;3.65;;;17.00;64.40;;;;;;5113032;28;20073;-72
2023/06/04 06:53:29;;;;;;;9.80;4.05;;;17.00;64.80;;;;;;5113055;28;20038;-66
2023/06/04 06:55:55;;;;;;;9.27;3.63;;;17.00;65.00;;;;;;5112691;28;20115;-69
2023/06/04 06:58:22;;;;;;;7.47;3.78;;;17.00;65.00;;;;;;5112601;28;20456;-68
2023/06/04 07:00:48;;;;;;;7.03;3.75;;;17.00;65.10;;;;;;5113025;28;20120;-67
2023/06/04 07:03:15;;;;;;;9.02;3.30;;;17.00;65.30;;;;;;5112687;28;20103;-68
2023/06/04 07:05:40;;;;;;;8.57;4.03;;;17.00;65.60;;;;;;5113540;28;20019;-67
2023/06/04 07:08:06;;;;;;;7.72;3.72;;;17.00;65.60;;;;;;5112540;28;20036;-67
2023/06/04 07:10:31;;;;;;;7.18;3.55;;;17.10;65.60;;;;;;5112937;28;20020;-67
2023/06/04 07:12:57;;;;;;;5.03;3.67;;;17.10;65.80;;;;;;5112712;28;20060;-68
2023/06/04 07:15:23;;;;;;;5.88;3.40;;;17.10;65.50;;;;;;5112023;28;20020;-67
2023/06/04 07:17:48;;;;;;;7.18;3.70;;;17.10;65.50;;;;;;5112366;28;20387;-67
2023/06/04 07:20:14;;;;;;;12.93;3.53;;;17.10;65.60;;;;;;5112275;28;20050;-68
2023/06/04 07:22:40;;;;;;;8.18;3.85;;;17.20;65.50;;;;;;5112858;28;20024;-67
2023/06/04 07:25:06;;;;;;;9.15;3.47;;;17.20;65.40;;;;;;5113026;28;20031;-68
2023/06/04 07:27:33;;;;;;;8.52;3.58;;;17.20;65.50;;;;;;5112641;28;20038;-68
2023/06/04 07:29:58;;;;;;;6.90;3.88;;;17.30;64.70;;;;;;5112950;28;20073;-67
2023/06/04 07:32:24;;;;;;;13.88;3.75;;;17.30;65.10;;;;;;5111748;28;20031;-67
2023/06/04 07:34:50;;;;;;;4.90;3.20;;;17.30;65.10;;;;;;5111534;28;20023;-67
2023/06/04 07:37:15;;;;;;;7.63;3.72;;;17.40;65.10;;;;;;5110989;28;20452;-69
2023/06/04 07:39:41;;;;;;;7.80;3.50;;;17.60;65.10;;;;;;5112370;28;20028;-68
2023/06/04 07:42:07;;;;;;;7.97;3.08;;;17.60;64.80;;;;;;5112179;28;20172;-69
2023/06/04 07:44:33;;;;;;;5.32;3.13;;;17.80;64.80;;;;;;5112634;28;20035;-68
2023/06/04 07:46:58;;;;;;;5.40;3.70;;;17.90;64.90;;;;;;5112504;28;20138;-69
2023/06/04 07:49:24;;;;;;;6.70;3.38;;;17.90;64.40;;;;;;5112755;28;20098;-69
2023/06/04 07:51:49;;;;;;;8.48;3.60;;;18.00;64.00;;;;;;5116118;28;20031;-69
2023/06/04 07:54:16;;;;;;;9.25;3.72;;;18.10;63.60;;;;;;5116026;28;20076;-68
2023/06/04 07:56:42;;;;;;;8.00;3.97;;;18.30;63.30;;;;;;5116130;28;20100;-68
2023/06/04 07:59:07;;;;;;;5.93;3.55;;;18.50;63.00;;;;;;5115060;28;20016;-67
2023/06/04 08:01:33;;;;;;;4.65;3.22;;;18.90;63.10;;;;;;5115487;28;20464;-68
2023/06/04 08:03:59;;;;;;;11.63;3.10;;;19.10;61.60;;;;;;5115921;28;20020;-67
2023/06/04 08:06:26;;;;;;;8.25;3.17;;;19.30;60.20;;;;;;5115640;27;20039;-67
2023/06/04 08:08:52;;;;;;;6.75;2.95;;;19.40;59.90;;;;;;5116261;28;20024;-68
2023/06/04 08:11:18;;;;;;;6.47;3.05;;;19.50;59.40;;;;;;5115637;28;20438;-69
2023/06/04 08:13:43;;;;;;;3.90;2.95;;;19.50;59.10;;;;;;5116173;28;20027;-69
2023/06/04 08:16:10;;;;;;;5.75;2.97;;;19.50;59.00;;;;;;5115690;28;20027;-67
2023/06/04 08:18:39;;;;;;;6.43;3.00;;;19.40;59.50;;;;;;5115521;28;20032;-68
2023/06/04 08:21:05;;;;;;;6.03;2.88;;;19.40;59.20;;;;;;5114657;28;20024;-68
2023/06/04 08:23:32;;;;;;;6.00;3.13;;;19.40;59.30;;;;;;5115452;28;20395;-69
2023/06/04 08:25:58;;;;;;;3.53;2.75;;;19.40;59.30;;;;;;5115596;28;20038;-69
2023/06/04 08:28:24;;;;;;;4.55;2.85;;;19.40;59.80;;;;;;5115429;28;20058;-69
2023/06/04 08:30:50;;;;;;;5.10;2.72;;;19.40;59.70;;;;;;5115397;27;20468;-70
2023/06/04 08:33:15;;;;;;;4.88;2.97;;;19.40;59.60;;;;;;5114878;28;20027;-69
2023/06/04 08:35:41;;;;;;;8.00;3.65;;;19.40;59.80;;;;;;5114533;28;20035;-69
2023/06/04 08:38:07;;;;;;;6.38;2.70;;;19.50;59.20;;;;;;5115270;28;20027;-69
2023/06/04 08:40:34;;;;;;;6.15;2.92;;;19.50;59.10;;;;;;5115069;28;20028;-68
2023/06/04 08:43:01;;;;;;;5.40;2.90;;;19.60;59.50;;;;;;5115757;28;20378;-68
2023/06/04 08:45:26;;;;;;;7.47;5.25;;;19.60;59.40;;;;;;5114758;28;20048;-68
2023/06/04 08:47:53;;;;;;;6.25;2.83;;;19.70;59.80;;;;;;5115425;28;20046;-69
2023/06/04 08:50:22;;;;;;;6.32;2.88;;;19.70;60.30;;;;;;5115041;28;20059;-69
2023/06/04 08:52:52;;;;;;;8.45;3.25;;;19.70;60.10;;;;;;5115327;28;20024;-68
2023/06/04 08:55:18;;;;;;;8.35;2.70;;;19.60;60.00;;;;;;5114999;28;20030;-69
2023/06/04 08:57:44;;;;;;;6.97;3.30;;;19.60;60.60;;;;;;5115303;28;20106;-68
2023/06/04 09:00:10;;;;;;;4.82;2.58;;;19.70;60.50;;;;;;5113918;28;20043;-69
2023/06/04 09:02:38;;;;;;;6.53;2.95;;;19.70;60.40;;;;;;5114324;28;20030;-70
2023/06/04 09:05:09;;;;;;;7.18;2.90;;;19.80;60.70;;;;;;5114930;28;20460;-68
2023/06/04 09:07:40;;;;;;;7.27;2.90;;;19.70;60.20;;;;;;5114675;28;20043;-68
2023/06/04 09:10:08;;;;;;;5.40;2.90;;;19.80;60.20;;;;;;5115049;28;20020;-67
2023/06/04 09:12:36;;;;;;;8.80;3.15;;;19.80;60.00;;;;;;5114342;28;20036;-67
2023/06/04 09:15:02;;;;;;;7.38;3.03;;;19.90;59.80;;;;;;5115064;28;20083;-67
2023/06/04 09:17:28;;;;;;;5.88;3.05;;;20.10;60.10;;;;;;5114204;28;20035;-68
2023/06/04 09:19:54;;;;;;;5.00;2.80;;;20.30;60.30;;;;;;5114614;28;20024;-67
2023/06/04 09:22:20;;;;;;;6.13;3.00;;;20.40;59.70;;;;;;5114188;28;20032;-67
2023/06/04 09:24:50;;;;;;;5.57;2.95;;;20.50;58.30;;;;;;5114175;28;20326;-69
2023/06/04 09:27:17;;;;;;;8.07;2.92;;;20.50;58.60;;;;;;5114180;28;20040;-71
2023/06/04 09:29:54;;;;;;;8.23;2.95;;;20.70;58.00;;;;;;5112979;28;20032;-69
2023/06/04 09:32:22;;;;;;;5.22;2.95;;;20.70;57.90;;;;;;5114246;28;20024;-68
2023/06/04 09:34:48;;;;;;;3.70;2.67;;;20.80;57.90;;;;;;5114414;28;20035;-68
2023/06/04 09:37:17;;;;;;;9.55;2.50;;;20.80;58.00;;;;;;5114227;28;20031;-68
2023/06/04 09:39:52;;;;;;;6.35;2.80;;;20.80;57.20;;;;;;5114142;28;20027;-68
2023/06/04 09:42:17;;;;;;;6.00;2.78;;;20.80;56.80;;;;;;5114076;28;20528;-68
2023/06/04 09:44:47;;;;;;;5.40;2.72;;;20.70;57.20;;;;;;5117744;28;20028;-68
2023/06/04 09:47:12;;;;;;;5.13;3.13;;;20.80;57.30;;;;;;5118841;28;20134;-67
2023/06/04 09:49:45;;;;;;;8.25;2.70;;;20.80;57.70;;;;;;5117762;28;20479;-67
2023/06/04 09:52:12;;;;;;;11.55;2.75;;;21.00;57.60;;;;;;5114133;28;20076;-68
2023/06/04 09:54:39;;;;;;;5.45;2.80;;;21.20;57.30;;;;;;5113693;28;20084;-68
2023/06/04 09:57:16;;;;;;;6.15;3.13;;;21.50;57.30;;;;;;5113981;28;20024;-67
2023/06/04 09:59:48;;;;;;;7.53;2.50;;;21.60;56.00;;;;;;5112389;28;20020;-68
2023/06/04 10:02:21;;;;;;;5.18;2.60;;;21.70;55.80;;;;;;5114005;28;20055;-68
2023/06/04 10:04:58;;;;;;;5.95;2.88;;;21.80;56.60;;;;;;5113834;28;20024;-69
2023/06/04 10:07:25;;;;;;;7.15;2.40;;;22.00;55.00;;;;;;5113524;28;20039;-69
2023/06/04 10:09:52;;;;;;;4.68;2.75;;;22.10;54.50;;;;;;5114116;28;20027;-68
2023/06/04 10:12:25;;;;;;;4.47;2.80;;;22.30;54.90;;;;;;5113306;28;20024;-68
2023/06/04 10:15:05;;;;;;;6.63;2.97;;;22.40;54.30;;;;;;5113522;28;20153;-67
2023/06/04 10:17:32;;;;;;;4.20;2.38;;;22.50;53.40;;;;;;5113093;28;20032;-69
2023/06/04 10:20:01;;;;;;;9.60;2.85;;;22.60;53.20;;;;;;5113332;28;20039;-68
2023/06/04 10:22:29;;;;;;;7.95;3.25;;;22.50;52.80;;;;;;5113067;28;20024;-69
2023/06/04 10:24:54;;;;;;;5.60;2.88;;;22.60;53.00;;;;;;5112753;28;20027;-68
2023/06/04 10:27:22;;;;;;;5.68;2.72;;;22.60;52.60;;;;;;5112763;28;20035;-72
2023/06/04 10:29:49;;;;;;;7.82;2.75;;;22.30;52.70;;;;;;5113344;28;20044;-69
2023/06/04 10:32:16;;;;;;;3.97;2.67;;;22.30;53.40;;;;;;5112959;28;20433;-68
2023/06/04 10:34:42;;;;;;;5.30;2.85;;;22.30;53.40;;;;;;5113062;28;20431;-68
2023/06/04 10:37:22;;;;;;;5.70;2.70;;;22.40;53.10;;;;;;5094848;28;20028;-68
2023/06/04 10:39:52;;;;;;;7.33;2.57;;;22.40;53.40;;;;;;5113280;28;20024;-67
2023/06/04 10:42:18;;;;;;;7.00;2.55;;;22.40;53.10;;;;;;5113203;28;20106;-68
2023/06/04 10:44:49;;;;;;;5.35;2.50;;;22.30;52.80;;;;;;5112657;28;20032;-69
2023/06/04 10:47:25;;;;;;;8.88;2.55;;;22.20;52.50;;;;;;5111698;28;20376;-69
2023/06/04 10:49:52;;;;;;;5.50;2.50;;;22.10;53.10;;;;;;5113140;28;20031;-68
2023/06/04 10:52:19;;;;;;;4.75;3.15;;;22.10;53.20;;;;;;5113034;28;20032;-69
2023/06/04 10:54:48;;;;;;;6.40;2.80;;;22.10;54.10;;;;;;5112640;28;20031;-69
2023/06/04 10:57:18;;;;;;;6.18;2.70;;;22.10;53.00;;;;;;5112956;28;20036;-68
2023/06/04 11:00:00;;;;;;;5.63;2.70;;;21.90;53.10;;;;;;5112412;28;20380;-69
2023/06/04 11:02:27;;;;;;;7.95;3.58;;;21.90;53.80;;;;;;5111293;28;20028;-69
2023/06/04 11:05:07;;;;;;;5.75;2.50;;;21.90;54.40;;;;;;5113178;28;20257;-68
2023/06/04 11:07:46;;;;;;;6.13;3.22;;;22.00;53.90;;;;;;5112682;28;20036;-69
2023/06/04 11:10:13;;;;;;;3.88;2.60;;;22.00;53.80;;;;;;5112787;28;20023;-67
2023/06/04 11:12:43;;;;;;;5.53;2.90;;;21.80;53.70;;;;;;5112252;28;20099;-69
2023/06/04 11:15:09;;;;;;;8.20;2.87;;;21.70;54.10;;;;;;5112806;28;20524;-68
2023/06/04 11:17:36;;;;;;;4.82;2.30;;;21.70;54.20;;;;;;5112513;28;20114;-69
2023/06/04 11:20:02;;;;;;;7.07;3.00;;;21.80;54.50;;;;;;5112876;28;20023;-68
2023/06/04 11:22:28;;;;;;;3.72;2.42;;;21.90;54.20;;;;;;5112337;28;20036;-68
2023/06/04 11:25:00;;;;;;;4.40;2.45;;;21.90;54.60;;;;;;5114530;28;20114;-69
2023/06/04 11:27:26;;;;;;;7.18;2.65;;;21.90;54.60;;;;;;5115984;28;20054;-70
2023/06/04 11:29:52;;;;;;;8.82;2.10;;;22.00;54.40;;;;;;5117065;28;20417;-69
2023/06/04 11:32:22;;;;;;;6.35;2.08;;;22.00;55.00;;;;;;5116607;28;20494;-69
2023/06/04 11:34:48;;;;;;;7.13;2.67;;;22.00;55.40;;;;;;5116210;28;20027;-68
2023/06/04 11:37:14;;;;;;;4.25;2.40;;;22.10;54.90;;;;;;5116312;28;20039;-69
2023/06/04 11:39:40;;;;;;;7.03;2.92;;;22.00;54.40;;;;;;5116070;28;20035;-68
2023/06/04 11:42:07;;;;;;;5.82;2.70;;;21.90;54.70;;;;;;5116604;28;20032;-68
2023/06/04 11:44:32;;;;;;;7.45;2.63;;;21.80;54.60;;;;;;5116216;28;20037;-68
2023/06/04 11:46:58;;;;;;;5.05;2.50;;;21.80;54.40;;;;;;5116443;28;20051;-67
2023/06/04 11:49:26;;;;;;;6.68;3.00;;;21.70;54.80;;;;;;5116584;28;20047;-67
2023/06/04 11:51:53;;;;;;;6.07;2.67;;;21.70;55.30;;;;;;5116329;28;20038;-68
2023/06/04 11:54:22;;;;;;;4.40;2.90;;;21.70;55.70;;;;;;5116288;28;20039;-67
2023/06/04 11:56:51;;;;;;;8.23;3.03;;;21.70;55.60;;;;;;5115967;28;20027;-67
2023/06/04 11:59:17;;;;;;;4.78;2.33;;;21.70;55.90;;;;;;5114995;28;20028;-67
2023/06/04 12:01:44;;;;;;;8.27;3.22;;;21.70;56.10;;;;;;5114522;28;20028;-67
2023/06/04 12:04:18;;;;;;;5.25;2.75;;;21.90;55.60;;;;;;5116230;28;20016;-67
2023/06/04 12:06:53;;;;;;;6.93;3.50;;;21.90;56.00;;;;;;5115630;28;20024;-68
2023/06/04 12:09:23;;;;;;;6.53;2.95;;;22.00;55.90;;;;;;5116267;28;20027;-67
2023/06/04 12:11:49;;;;;;;4.93;2.63;;;22.10;54.70;;;;;;5115588;28;20028;-68
2023/06/04 12:14:21;;;;;;;4.63;2.85;;;22.20;55.20;;;;;;5114776;28;20032;-68
2023/06/04 12:16:56;;;;;;;6.75;2.60;;;22.20;54.60;;;;;;5115705;28;20088;-68
2023/06/04 12:19:22;;;;;;;9.93;3.03;;;22.20;54.60;;;;;;5114615;28;20028;-68
2023/06/04 12:22:03;;;;;;;5.70;2.92;;;22.20;55.40;;;;;;5115624;28;20308;-68
2023/06/04 12:24:28;;;;;;;;;;;22.10;55.10;;;;;;5115668;27;20031;-72
2023/06/04 12:27:09;;;;;;;11.82;2.92;;;22.20;55.30;;;;;;5115602;28;19912;-68
2023/06/04 12:29:35;;;;;;;5.28;2.92;;;22.20;55.50;;;;;;5115155;28;20023;-68
2023/06/04 12:32:08;;;;;;;5.63;3.08;;;22.20;55.70;;;;;;5115818;28;20031;-67
2023/06/04 12:34:37;;;;;;;4.05;2.58;;;22.20;55.70;;;;;;5115221;28;20107;-69
2023/06/04 12:37:05;;;;;;;6.13;2.80;;;22.20;55.80;;;;;;5114625;28;20032;-68
2023/06/04 12:39:32;;;;;;;6.85;2.78;;;22.20;55.90;;;;;;5114994;27;20034;-68
2023/06/04 12:41:57;;;;;;;5.10;2.67;;;22.20;55.60;;;;;;5114275;28;20023;-68
2023/06/04 12:44:23;;;;;;;5.40;2.90;;;22.20;55.40;;;;;;5115867;28;20493;-67
2023/06/04 12:46:50;;;;;;;7.80;3.50;;;22.20;55.80;;;;;;5115083;28;20043;-67